This is the latest recevied weather packets stored in our database for station/object W0AKO. If no packets are shown the sender has not sent any weather packets the latest 10 day(s).
| Time | Temp. | Humidity | Pressure | Rain* | Wind** | Luminosity | Snow |
|---|---|---|---|---|---|---|---|
| 1777385559 | 10.56° C | 10% | 1020.3 hPa | 0 mm | - | 104 W/m² | - |
| 1777385257 | 10° C | 10% | 1020.2 hPa | 0 mm | - | 103 W/m² | - |
| 1777384952 | 10° C | 10% | 1020 hPa | 0 mm | - | 96 W/m² | - |
| 1777384650 | 10° C | 10% | 1020.1 hPa | 0 mm | - | 92 W/m² | - |
| 1777384350 | 9.44° C | 10% | 1019.9 hPa | 0 mm | - | 83 W/m² | - |
| 1777384046 | 8.89° C | 10% | 1019.9 hPa | 0 mm | - | 72 W/m² | - |
| 1777383742 | 8.33° C | 10% | 1020.2 hPa | 0 mm | - | 53 W/m² | - |
| 1777383438 | 7.78° C | 10% | 1020 hPa | 0 mm | - | 46 W/m² | - |
| 1777383134 | 7.78° C | 10% | 1019.9 hPa | 0 mm | - | 40 W/m² | - |
| 1777382832 | 7.22° C | 10% | 1019.7 hPa | 0 mm | - | 23 W/m² | - |
| 1777382527 | 6.67° C | 10% | 1019.2 hPa | 0 mm | - | 20 W/m² | - |
| 1777382223 | 7.22° C | 10% | 1019.4 hPa | 0 mm | - | 19 W/m² | - |
| 1777381919 | 7.22° C | 10% | 1019 hPa | 0 mm | - | 15 W/m² | - |
| 1777381619 | 7.78° C | 10% | 1018.7 hPa | 0 mm | - | 13 W/m² | - |
| 1777381315 | 7.78° C | 10% | 1018.7 hPa | 0 mm | - | 11 W/m² | - |
| 1777381012 | 7.78° C | 10% | 1018.9 hPa | 0 mm | - | 8 W/m² | - |
| 1777380708 | 8.33° C | 10% | 1018.7 hPa | 0 mm | - | 5 W/m² | - |
| 1777380404 | 7.78° C | 10% | 1018.5 hPa | 0 mm | - | 3 W/m² | - |
| 1777380101 | 7.78° C | 10% | 1018.5 hPa | 0 mm | - | 0 W/m² | - |
| 1777379798 | 8.33° C | 10% | 1018.7 hPa | 0 mm | - | 0 W/m² | - |
| 1777379493 | 8.33° C | 10% | 1018.5 hPa | 0 mm | - | 0 W/m² | - |
| 1777379188 | 8.33° C | 10% | 1018.5 hPa | 0 mm | - | 0 W/m² | - |
| 1777378884 | 8.33° C | 10% | 1018.5 hPa | 0 mm | - | 0 W/m² | - |
| 1777378580 | 8.33° C | 10% | 1018.7 hPa | 0 mm | - | 0 W/m² | - |
| 1777378276 | 8.33° C | 10% | 1018.5 hPa | 0 mm | - | 0 W/m² | - |
* Rain latest hour (hover to see other rain measurements)
** Current wind speed in m/s (hover to see current wind gust speed)